createdAt,value
2022-11-18T00:01:25.804Z,0.50
2022-11-18T00:03:53.650Z,0.50
2022-11-18T00:06:24.851Z,0.50
2022-11-18T00:08:55.107Z,0.50
2022-11-18T00:11:44.139Z,0.50
2022-11-18T00:14:20.825Z,0.20
2022-11-18T00:16:54.554Z,0.30
2022-11-18T00:19:25.264Z,0.50
2022-11-18T00:21:53.194Z,0.30
2022-11-18T00:24:21.463Z,0.20
2022-11-18T00:26:49.576Z,0.40
2022-11-18T00:29:17.455Z,0.40
2022-11-18T00:31:45.484Z,0.30
2022-11-18T00:34:15.909Z,0.30
2022-11-18T00:36:44.476Z,0.40
2022-11-18T00:39:13.363Z,0.20
2022-11-18T00:41:59.410Z,0.10
2022-11-18T00:44:27.274Z,0.20
2022-11-18T00:46:55.100Z,0.30
2022-11-18T00:49:22.977Z,0.10
2022-11-18T00:51:50.343Z,0.20
2022-11-18T00:54:17.982Z,0.20
2022-11-18T00:56:45.481Z,0.10
2022-11-18T00:59:13.052Z,0.20
2022-11-18T01:01:40.758Z,0.10
2022-11-18T01:04:08.291Z,0.00
2022-11-18T01:06:35.940Z,0.20
2022-11-18T01:09:03.488Z,0.00
2022-11-18T01:11:49.480Z,0.10
2022-11-18T01:14:17.063Z,0.10
2022-11-18T01:16:44.800Z,0.00
2022-11-18T01:19:12.631Z,0.10
2022-11-18T01:21:40.160Z,0.10
2022-11-18T01:24:07.807Z,0.10
2022-11-18T01:26:35.531Z,0.10
2022-11-18T01:29:03.038Z,0.00
2022-11-18T01:31:30.477Z,0.20
2022-11-18T01:33:58.007Z,0.00
2022-11-18T01:36:27.825Z,0.30
2022-11-18T01:38:56.261Z,0.00
2022-11-18T01:41:26.254Z,-0.10
2022-11-18T01:44:00.194Z,0.10
2022-11-18T01:46:30.682Z,0.10
2022-11-18T01:48:58.390Z,0.00
2022-11-18T01:51:51.688Z,0.20
2022-11-18T01:54:26.760Z,0.10
2022-11-18T01:57:00.042Z,0.00
2022-11-18T01:59:33.744Z,0.00
2022-11-18T02:02:06.520Z,0.20
2022-11-18T02:04:34.995Z,0.00
2022-11-18T02:07:03.158Z,-0.10
2022-11-18T02:09:30.973Z,-0.10
2022-11-18T02:11:59.168Z,0.00
2022-11-18T02:14:33.602Z,-0.20
2022-11-18T02:17:25.498Z,-0.10
2022-11-18T02:20:01.854Z,-0.20
2022-11-18T02:23:01.114Z,-0.20
2022-11-18T02:25:47.142Z,-0.10
2022-11-18T02:28:29.453Z,-0.30
2022-11-18T02:31:15.533Z,-0.30
2022-11-18T02:34:21.941Z,-0.40
2022-11-18T02:37:12.512Z,-0.50
2022-11-18T02:40:13.376Z,-0.60
2022-11-18T02:42:43.899Z,-0.50
2022-11-18T02:45:16.490Z,-0.50
2022-11-18T02:47:47.478Z,-0.30
2022-11-18T02:50:20.240Z,-0.50
2022-11-18T02:52:53.330Z,-0.40
2022-11-18T02:55:22.530Z,-0.40
2022-11-18T02:57:52.177Z,-0.80
2022-11-18T03:00:19.870Z,-0.60
2022-11-18T03:02:50.334Z,-0.80
2022-11-18T03:05:41.053Z,-0.70
2022-11-18T03:08:15.659Z,-0.70
2022-11-18T03:11:14.902Z,-0.70
2022-11-18T03:14:04.027Z,-0.80
2022-11-18T03:16:42.024Z,-0.90
2022-11-18T03:19:30.229Z,-1.10
2022-11-18T03:22:04.590Z,-1.10
2022-11-18T03:24:35.579Z,-1.10
2022-11-18T03:27:34.209Z,-0.90
2022-11-18T03:30:12.725Z,-1.10
2022-11-18T03:32:46.152Z,-1.20
2022-11-18T03:35:24.421Z,-1.20
2022-11-18T03:38:00.026Z,-1.20
2022-11-18T03:40:31.670Z,-1.40
2022-11-18T03:43:14.833Z,-1.30
2022-11-18T03:45:50.046Z,-1.50
2022-11-18T03:48:19.923Z,-1.60
2022-11-18T03:50:55.721Z,-1.40
2022-11-18T03:53:28.372Z,-1.60
2022-11-18T03:56:01.509Z,-1.50
2022-11-18T03:58:37.216Z,-1.50
2022-11-18T04:01:17.296Z,-1.40
2022-11-18T04:03:45.332Z,-1.40
2022-11-18T04:06:36.235Z,-1.30
2022-11-18T04:09:18.896Z,-1.40
2022-11-18T04:12:02.963Z,-1.40
2022-11-18T04:14:36.423Z,-1.30
2022-11-18T04:17:20.169Z,-1.30
2022-11-18T04:19:48.202Z,-1.30
2022-11-18T04:22:16.236Z,-1.30
2022-11-18T04:24:43.692Z,-1.30
2022-11-18T04:27:11.724Z,-1.30
2022-11-18T04:29:39.526Z,-1.40
2022-11-18T04:32:07.667Z,-1.20
2022-11-18T04:34:35.256Z,-1.20
2022-11-18T04:37:03.130Z,-1.20
2022-11-18T04:39:30.539Z,-1.10
2022-11-18T04:41:58.205Z,-1.20
2022-11-18T04:44:31.450Z,-1.10
2022-11-18T04:47:00.695Z,-1.10
2022-11-18T04:49:28.890Z,-0.90
2022-11-18T04:51:57.688Z,-1.10
2022-11-18T04:54:26.007Z,-1.20
2022-11-18T04:56:54.603Z,-1.00
2022-11-18T04:59:25.093Z,-1.00
2022-11-18T05:01:53.498Z,-1.10
2022-11-18T05:04:24.332Z,-1.00
2022-11-18T05:06:52.303Z,-1.10
2022-11-18T05:09:20.773Z,-1.20
2022-11-18T05:12:07.577Z,-0.70
2022-11-18T05:14:35.243Z,-1.10
2022-11-18T05:17:04.405Z,-1.20
2022-11-18T05:19:31.789Z,-1.20
2022-11-18T05:21:59.570Z,-1.30
2022-11-18T05:24:27.053Z,-1.30
2022-11-18T05:26:55.327Z,-1.40
2022-11-18T05:29:23.040Z,-1.40
2022-11-18T05:31:51.157Z,-1.30
2022-11-18T05:34:19.553Z,-1.30
2022-11-18T05:36:47.084Z,-1.60
2022-11-18T05:39:14.685Z,-1.40
2022-11-18T05:42:00.679Z,-1.40
2022-11-18T05:44:28.093Z,-1.50
2022-11-18T05:46:55.646Z,-1.60
2022-11-18T05:49:23.683Z,-1.70
2022-11-18T05:51:51.163Z,-1.70
2022-11-18T05:54:21.525Z,-1.50
2022-11-18T05:56:49.281Z,-1.70
2022-11-18T05:59:17.248Z,-1.60
2022-11-18T06:02:04.488Z,-1.50
2022-11-18T06:05:05.222Z,-1.90
2022-11-18T06:07:46.841Z,-1.80
2022-11-18T06:10:19.245Z,-1.80
2022-11-18T06:12:50.254Z,-2.00
2022-11-18T06:15:31.549Z,-2.10
2022-11-18T06:18:02.454Z,-2.20
2022-11-18T06:20:30.301Z,-2.30
2022-11-18T06:22:59.171Z,-2.40
2022-11-18T06:25:26.573Z,-2.20
2022-11-18T06:27:58.008Z,-2.30
2022-11-18T06:30:25.583Z,-2.20
2022-11-18T06:32:53.055Z,-2.20
2022-11-18T06:35:20.695Z,-2.20
2022-11-18T06:37:48.293Z,-2.30
2022-11-18T06:40:15.814Z,-2.30
2022-11-18T06:43:02.017Z,-2.20
2022-11-18T06:45:30.411Z,-2.40
2022-11-18T06:48:01.471Z,-2.40
2022-11-18T06:50:29.230Z,-2.20
2022-11-18T06:52:57.504Z,-2.10
2022-11-18T06:55:25.242Z,-2.30
2022-11-18T06:57:53.759Z,-2.20
2022-11-18T07:00:21.403Z,-2.10
2022-11-18T07:02:48.976Z,-2.40
2022-11-18T07:05:17.293Z,-2.10
2022-11-18T07:07:45.189Z,-2.20
2022-11-18T07:10:12.808Z,-2.30
2022-11-18T07:12:40.085Z,-2.30
2022-11-18T07:15:08.198Z,-2.30
2022-11-18T07:17:35.738Z,-2.30
2022-11-18T07:20:03.285Z,-2.20
2022-11-18T07:22:30.689Z,-1.90
2022-11-18T07:24:58.170Z,-2.20
2022-11-18T07:27:25.639Z,-2.20
2022-11-18T07:29:53.128Z,-2.10
2022-11-18T07:32:20.526Z,-2.00
2022-11-18T07:34:48.074Z,-1.90
2022-11-18T07:37:15.545Z,-1.90
2022-11-18T07:39:42.896Z,-1.90
2022-11-18T07:42:10.808Z,-1.90
2022-11-18T07:44:38.312Z,-1.90
2022-11-18T07:47:05.772Z,-1.70
2022-11-18T07:49:33.299Z,-1.80
2022-11-18T07:52:00.646Z,-1.90
2022-11-18T07:54:27.957Z,-2.00
2022-11-18T07:56:55.486Z,-1.90
2022-11-18T07:59:23.656Z,-1.80
2022-11-18T08:01:51.567Z,-1.80
2022-11-18T08:04:19.400Z,-1.60
2022-11-18T08:06:47.205Z,-1.60
2022-11-18T08:09:15.174Z,-1.70
2022-11-18T08:11:43.315Z,-1.40
2022-11-18T08:14:10.949Z,-1.40
2022-11-18T08:16:38.784Z,-1.50
2022-11-18T08:19:06.441Z,-1.40
2022-11-18T08:21:34.237Z,-1.40
2022-11-18T08:24:01.726Z,-1.10
2022-11-18T08:26:29.911Z,-1.10
2022-11-18T08:29:00.255Z,-1.20
2022-11-18T08:31:31.236Z,-1.00
2022-11-18T08:34:06.596Z,-1.00
2022-11-18T08:36:36.908Z,-0.80
2022-11-18T08:39:07.539Z,-0.80
2022-11-18T08:41:40.749Z,-0.70
2022-11-18T08:44:13.024Z,-0.70
2022-11-18T08:46:40.745Z,-0.90
2022-11-18T08:49:08.444Z,-0.70
2022-11-18T08:51:36.024Z,-0.80
2022-11-18T08:54:03.726Z,-0.70
2022-11-18T08:56:31.290Z,-0.70
2022-11-18T08:58:59.015Z,-0.40
2022-11-18T09:01:27.014Z,-0.30
2022-11-18T09:03:54.570Z,-0.20
2022-11-18T09:06:25.430Z,-0.40
2022-11-18T09:08:53.807Z,-0.50
2022-11-18T09:11:24.529Z,-0.20
2022-11-18T09:16:46.540Z,-0.50
2022-11-18T09:19:45.710Z,-0.50
2022-11-18T09:22:04.289Z,-0.20
2022-11-18T09:24:32.089Z,-0.40
2022-11-18T09:26:59.889Z,-0.50
2022-11-18T09:29:28.185Z,-0.30
2022-11-18T09:31:56.236Z,-0.60
2022-11-18T09:34:24.335Z,-0.60
2022-11-18T09:36:56.148Z,-0.60
2022-11-18T09:39:25.631Z,-0.50
2022-11-18T09:42:15.213Z,-0.60
2022-11-18T09:44:51.770Z,-0.60
2022-11-18T09:47:29.890Z,-0.50
2022-11-18T09:50:26.748Z,-0.50
2022-11-18T09:53:21.837Z,-0.40
2022-11-18T09:55:50.859Z,-0.60
2022-11-18T09:58:38.890Z,-0.60
2022-11-18T10:01:17.778Z,-0.50
2022-11-18T10:03:45.485Z,-0.50
2022-11-18T10:06:24.543Z,-0.50
2022-11-18T10:09:25.929Z,-0.30
2022-11-18T10:12:16.212Z,-0.40
2022-11-18T10:14:47.146Z,-0.40
2022-11-18T10:17:49.266Z,-0.50
2022-11-18T10:20:32.671Z,-0.70
2022-11-18T10:23:23.379Z,-0.50
2022-11-18T10:25:50.885Z,-0.30
2022-11-18T10:28:25.570Z,-0.30
2022-11-18T10:30:53.526Z,-0.20
2022-11-18T10:33:26.026Z,0.20
2022-11-18T10:36:11.811Z,0.10
2022-11-18T10:38:39.566Z,0.30
2022-11-18T10:41:14.095Z,0.30
2022-11-18T10:43:56.403Z,0.40
2022-11-18T10:46:29.623Z,0.30
2022-11-18T10:49:09.295Z,0.30
2022-11-18T10:52:06.391Z,0.30
2022-11-18T10:54:34.225Z,0.00
2022-11-18T10:57:23.489Z,-0.20
2022-11-18T10:59:56.895Z,0.20
2022-11-18T11:02:35.103Z,0.10
2022-11-18T11:05:15.769Z,0.10
2022-11-18T11:07:43.300Z,0.10
2022-11-18T11:10:14.219Z,0.40
2022-11-18T11:12:53.522Z,0.20
2022-11-18T11:15:36.716Z,0.40
2022-11-18T11:18:42.384Z,0.20
2022-11-18T11:21:19.019Z,0.30
2022-11-18T11:23:47.455Z,0.20
2022-11-18T11:29:50.080Z,0.10
2022-11-18T11:32:50.815Z,0.40
2022-11-18T11:35:23.871Z,0.20
2022-11-18T11:38:01.258Z,0.30
2022-11-18T11:40:57.094Z,0.30
2022-11-18T11:44:05.899Z,0.50
2022-11-18T11:47:18.463Z,0.30
2022-11-18T11:50:09.202Z,0.30
2022-11-18T11:53:04.055Z,0.20
2022-11-18T11:56:22.630Z,0.10
2022-11-18T11:59:08.181Z,0.00
2022-11-18T12:02:04.461Z,0.00
2022-11-18T12:04:46.814Z,0.10
2022-11-18T12:07:27.472Z,0.00
2022-11-18T12:10:21.753Z,0.30
2022-11-18T12:13:11.135Z,0.10
2022-11-18T12:16:04.059Z,0.00
2022-11-18T12:18:35.415Z,-0.10
2022-11-18T12:21:03.605Z,-0.10
2022-11-18T12:23:36.981Z,-0.30
2022-11-18T12:26:08.894Z,-0.10
2022-11-18T12:28:43.980Z,-0.40
2022-11-18T12:31:20.895Z,-0.40
2022-11-18T12:33:54.860Z,-0.30
2022-11-18T12:36:40.038Z,-0.50
2022-11-18T12:39:26.144Z,-0.30
2022-11-18T12:42:17.414Z,-0.60
2022-11-18T12:44:50.204Z,-0.90
2022-11-18T12:47:42.306Z,-0.90
2022-11-18T12:50:12.961Z,-0.90
2022-11-18T12:52:40.530Z,-0.90
2022-11-18T12:55:24.723Z,-0.90
2022-11-18T12:57:52.492Z,-0.90
2022-11-18T13:00:26.218Z,-1.00
2022-11-18T13:02:56.170Z,-1.00
2022-11-18T13:05:26.511Z,-0.90
2022-11-18T13:08:16.250Z,-0.70
2022-11-18T13:10:55.898Z,-0.80
2022-11-18T13:13:33.864Z,-0.90
2022-11-18T13:16:43.668Z,-0.90
2022-11-18T13:19:25.375Z,-0.70
2022-11-18T13:22:16.107Z,-0.90
2022-11-18T13:24:46.375Z,-0.90
2022-11-18T13:27:49.779Z,-0.90
2022-11-18T13:30:18.618Z,-1.10
2022-11-18T13:32:48.103Z,-0.90
2022-11-18T13:35:19.694Z,-1.20
2022-11-18T13:37:55.905Z,-1.20
2022-11-18T13:40:29.610Z,-1.30
2022-11-18T13:42:57.178Z,-1.40
2022-11-18T13:45:28.656Z,-1.30
2022-11-18T13:47:59.960Z,-1.40
2022-11-18T13:50:41.330Z,-1.60
2022-11-18T13:53:33.040Z,-1.50
2022-11-18T13:56:04.499Z,-1.60
2022-11-18T14:01:39.540Z,-1.70
2022-11-18T14:04:27.738Z,-1.60
2022-11-18T14:07:37.489Z,-1.70
2022-11-18T14:10:08.968Z,-1.80
2022-11-18T14:12:37.699Z,-1.90
2022-11-18T14:15:22.729Z,-1.80
2022-11-18T14:18:01.364Z,-1.90
2022-11-18T14:20:31.779Z,-1.90
2022-11-18T14:23:03.675Z,-2.00
2022-11-18T14:25:34.805Z,-2.20
2022-11-18T14:28:28.826Z,-2.00
2022-11-18T14:31:00.426Z,-2.00
2022-11-18T14:33:29.921Z,-2.20
2022-11-18T14:36:11.215Z,-2.10
2022-11-18T14:41:48.368Z,-2.10
2022-11-18T14:44:17.677Z,-1.90
2022-11-18T14:46:48.927Z,-2.20
2022-11-18T14:49:19.933Z,-2.20
2022-11-18T14:51:49.377Z,-2.00
2022-11-18T14:54:25.489Z,-2.10
2022-11-18T14:56:57.339Z,-2.00
2022-11-18T14:59:25.339Z,-2.00
2022-11-18T15:01:53.090Z,-1.80
2022-11-18T15:04:22.438Z,-1.90
2022-11-18T15:06:50.452Z,-1.90
2022-11-18T15:09:18.142Z,-1.90
2022-11-18T15:11:47.112Z,-2.00
2022-11-18T15:14:14.661Z,-1.70
2022-11-18T15:16:42.956Z,-1.70
2022-11-18T15:19:15.771Z,-1.90
2022-11-18T15:21:44.376Z,-2.10
2022-11-18T15:24:11.836Z,-2.00
2022-11-18T15:26:46.048Z,-1.80
2022-11-18T15:29:26.962Z,-2.10
2022-11-18T15:31:57.170Z,-2.00
2022-11-18T15:34:24.888Z,-2.10
2022-11-18T15:36:52.879Z,-1.90
2022-11-18T15:39:20.380Z,-2.10
2022-11-18T15:41:47.858Z,-1.90
2022-11-18T15:44:16.622Z,-1.90
2022-11-18T15:46:48.279Z,-1.80
2022-11-18T15:49:18.001Z,-1.90
2022-11-18T15:51:45.829Z,-2.00
2022-11-18T15:54:13.829Z,-2.00
2022-11-18T15:56:42.151Z,-1.90
2022-11-18T15:59:14.357Z,-1.80
2022-11-18T16:01:46.999Z,-1.90
2022-11-18T16:04:17.025Z,-1.90
2022-11-18T16:06:45.119Z,-1.80
2022-11-18T16:09:14.195Z,-1.90
2022-11-18T16:12:00.846Z,-1.90
2022-11-18T16:14:28.612Z,-1.90
2022-11-18T16:16:57.634Z,-1.90
2022-11-18T16:19:27.872Z,-1.80
2022-11-18T16:21:57.379Z,-1.70
2022-11-18T16:24:30.441Z,-1.50
2022-11-18T16:26:58.716Z,-1.80
2022-11-18T16:29:26.236Z,-1.80
2022-11-18T16:31:55.148Z,-1.70
2022-11-18T16:34:27.775Z,-1.70
2022-11-18T16:36:57.665Z,-1.70
2022-11-18T16:39:27.525Z,-1.70
2022-11-18T16:42:02.151Z,-1.70
2022-11-18T16:44:34.190Z,-1.70
2022-11-18T16:47:01.670Z,-1.80
2022-11-18T16:49:29.289Z,-1.70
2022-11-18T16:51:57.834Z,-1.80
2022-11-18T16:54:29.678Z,-1.70
2022-11-18T16:56:58.906Z,-1.80
2022-11-18T16:59:30.942Z,-1.80
2022-11-18T17:02:00.983Z,-1.90
2022-11-18T17:04:30.187Z,-1.80
2022-11-18T17:07:01.128Z,-1.80
2022-11-18T17:09:28.792Z,-1.80
2022-11-18T17:11:57.323Z,-1.80
2022-11-18T17:14:25.883Z,-1.80
2022-11-18T17:16:53.907Z,-2.00
2022-11-18T17:19:23.379Z,-1.80
2022-11-18T17:21:52.164Z,-1.90
2022-11-18T17:24:22.538Z,-1.80
2022-11-18T17:26:51.218Z,-1.90
2022-11-18T17:29:19.111Z,-1.90
2022-11-18T17:31:47.034Z,-1.90
2022-11-18T17:34:16.335Z,-1.90
2022-11-18T17:36:44.400Z,-2.00
2022-11-18T17:39:13.691Z,-2.10
2022-11-18T17:42:00.023Z,-2.20
2022-11-18T17:44:29.511Z,-2.10
2022-11-18T17:46:57.011Z,-2.10
2022-11-18T17:49:25.382Z,-2.10
2022-11-18T17:51:52.894Z,-2.30
2022-11-18T17:54:21.646Z,-2.30
2022-11-18T17:56:52.689Z,-2.20
2022-11-18T17:59:21.320Z,-2.30
2022-11-18T18:01:54.131Z,-2.40
2022-11-18T18:04:26.391Z,-2.50
2022-11-18T18:06:55.211Z,-2.30
2022-11-18T18:09:28.824Z,-2.40
2022-11-18T18:11:59.248Z,-2.40
2022-11-18T18:14:26.777Z,-2.40
2022-11-18T18:16:54.515Z,-2.50
2022-11-18T18:19:23.930Z,-2.50
2022-11-18T18:21:51.729Z,-2.60
2022-11-18T18:24:21.422Z,-2.50
2022-11-18T18:26:49.539Z,-2.50
2022-11-18T18:29:17.192Z,-2.40
2022-11-18T18:31:44.768Z,-2.40
2022-11-18T18:34:12.381Z,-2.40
2022-11-18T18:36:40.001Z,-2.40
2022-11-18T18:39:07.644Z,-2.40
2022-11-18T18:41:35.437Z,-2.40
2022-11-18T18:44:02.988Z,-2.00
2022-11-18T18:46:33.853Z,-2.30
2022-11-18T18:49:14.617Z,-2.20
2022-11-18T18:51:44.994Z,-2.20
2022-11-18T18:54:14.590Z,-2.20
2022-11-18T18:56:43.643Z,-2.30
2022-11-18T18:59:12.638Z,-2.30
2022-11-18T19:01:40.989Z,-2.40
2022-11-18T19:04:11.979Z,-2.30
2022-11-18T19:06:59.718Z,-2.20
2022-11-18T19:09:28.173Z,-2.20
2022-11-18T19:12:14.965Z,-2.40
2022-11-18T19:14:42.756Z,-2.30
2022-11-18T19:17:13.003Z,-2.50
2022-11-18T19:20:02.415Z,-2.40
2022-11-18T19:22:33.320Z,-2.40
2022-11-18T19:25:01.953Z,-2.60
2022-11-18T19:27:30.593Z,-2.50
2022-11-18T19:29:59.408Z,-2.50
2022-11-18T19:32:27.401Z,-2.80
2022-11-18T19:34:55.956Z,-2.80
2022-11-18T19:37:24.120Z,-2.50
2022-11-18T19:39:51.571Z,-2.50
2022-11-18T19:42:18.936Z,-2.70
2022-11-18T19:44:49.628Z,-2.70
2022-11-18T19:47:17.875Z,-2.80
2022-11-18T19:49:45.511Z,-2.70
2022-11-18T19:52:13.051Z,-2.80
2022-11-18T19:54:41.547Z,-2.80
2022-11-18T19:57:09.482Z,-2.60
2022-11-18T19:59:37.365Z,-2.70
2022-11-18T20:02:05.028Z,-2.80
2022-11-18T20:04:32.639Z,-2.90
2022-11-18T20:07:00.224Z,-2.80
2022-11-18T20:09:27.897Z,-2.70
2022-11-18T20:11:55.604Z,-2.80
2022-11-18T20:14:23.609Z,-2.90
2022-11-18T20:16:52.185Z,-2.90
2022-11-18T20:19:19.885Z,-2.80
2022-11-18T20:21:49.162Z,-3.00
2022-11-18T20:24:18.645Z,-3.00
2022-11-18T20:26:46.593Z,-2.90
2022-11-18T20:29:14.280Z,-2.80
2022-11-18T20:31:42.365Z,-2.90
2022-11-18T20:34:14.707Z,-3.00
2022-11-18T20:36:42.645Z,-3.00
2022-11-18T20:39:15.966Z,-3.00
2022-11-18T20:42:04.547Z,-3.00
2022-11-18T20:44:32.096Z,-3.00
2022-11-18T20:46:59.718Z,-3.10
2022-11-18T20:49:27.279Z,-3.00
2022-11-18T20:51:54.777Z,-3.10
2022-11-18T20:54:22.244Z,-3.00
2022-11-18T20:56:49.810Z,-2.90
2022-11-18T20:59:17.816Z,-3.00
2022-11-18T21:01:45.697Z,-3.10
2022-11-18T21:04:13.174Z,-3.10
2022-11-18T21:06:40.762Z,-3.10
2022-11-18T21:09:08.661Z,-3.10
2022-11-18T21:11:37.236Z,-3.10
2022-11-18T21:14:25.074Z,-3.20
2022-11-18T21:17:00.893Z,-3.10
2022-11-18T21:19:29.364Z,-3.10
2022-11-18T21:21:57.727Z,-3.20
2022-11-18T21:24:29.336Z,-3.20
2022-11-18T21:26:58.203Z,-3.20
2022-11-18T21:29:27.315Z,-3.20
2022-11-18T21:31:55.691Z,-3.10
2022-11-18T21:34:23.346Z,-3.10
2022-11-18T21:36:54.639Z,-3.10
2022-11-18T21:39:26.355Z,-3.30
2022-11-18T21:41:56.609Z,-3.00
2022-11-18T21:44:25.150Z,-3.20
2022-11-18T21:46:52.730Z,-3.20
2022-11-18T21:49:20.365Z,-3.20
2022-11-18T21:51:48.058Z,-3.20
2022-11-18T21:54:16.217Z,-3.10
2022-11-18T21:56:43.826Z,-3.20
2022-11-18T21:59:11.315Z,-3.30
2022-11-18T22:01:38.819Z,-3.20
2022-11-18T22:04:06.411Z,-3.20
2022-11-18T22:06:35.518Z,-3.20
2022-11-18T22:09:04.410Z,-3.20
2022-11-18T22:11:31.926Z,-3.20
2022-11-18T22:13:59.452Z,-3.30
2022-11-18T22:16:27.886Z,-3.20
2022-11-18T22:19:01.164Z,-3.20
2022-11-18T22:21:30.558Z,-3.20
2022-11-18T22:24:02.493Z,-3.20
2022-11-18T22:26:30.068Z,-3.20
2022-11-18T22:28:58.722Z,-3.10
2022-11-18T22:31:28.250Z,-3.20
2022-11-18T22:33:56.883Z,-3.30
2022-11-18T22:36:26.352Z,-3.20
2022-11-18T22:38:54.888Z,-3.30
2022-11-18T22:41:43.785Z,-3.30
2022-11-18T22:44:14.066Z,-3.30
2022-11-18T22:46:44.016Z,-3.30
2022-11-18T22:49:12.768Z,-3.30
2022-11-18T22:51:41.137Z,-3.30
2022-11-18T22:56:57.440Z,-3.40
2022-11-18T22:59:25.547Z,-3.30
2022-11-18T23:01:53.884Z,-3.30
2022-11-18T23:04:21.411Z,-3.20
2022-11-18T23:06:49.923Z,-3.30
2022-11-18T23:09:17.839Z,-3.40
2022-11-18T23:12:04.461Z,-3.40
2022-11-18T23:14:31.873Z,-3.40
2022-11-18T23:17:00.645Z,-3.40
2022-11-18T23:19:28.206Z,-3.40
2022-11-18T23:21:55.890Z,-3.40
2022-11-18T23:24:23.487Z,-3.30
2022-11-18T23:26:50.909Z,-3.40
2022-11-18T23:29:19.027Z,-3.30
2022-11-18T23:31:46.884Z,-3.30
2022-11-18T23:34:16.115Z,-3.40
2022-11-18T23:36:44.176Z,-3.30
2022-11-18T23:39:12.508Z,-3.20
2022-11-18T23:41:40.805Z,-3.50
2022-11-18T23:44:08.628Z,-3.40
2022-11-18T23:46:36.379Z,-3.40
2022-11-18T23:49:07.664Z,-3.40
2022-11-18T23:51:35.287Z,-3.40
2022-11-18T23:54:02.846Z,-3.50
2022-11-18T23:56:32.787Z,-3.40
2022-11-18T23:59:04.953Z,-3.40
